createdAt,value
2022-10-04T00:00:38.516Z,98570.13
2022-10-04T00:01:55.512Z,98577.30
2022-10-04T00:04:25.761Z,98571.86
2022-10-04T00:05:28.857Z,98579.71
2022-10-04T00:06:31.714Z,98576.21
2022-10-04T00:07:43.998Z,98583.22
2022-10-04T00:09:00.518Z,98578.75
2022-10-04T00:10:09.591Z,98578.63
2022-10-04T00:11:21.212Z,98583.13
2022-10-04T00:12:41.035Z,98583.13
2022-10-04T00:13:46.348Z,98583.13
2022-10-04T00:14:48.866Z,98587.46
2022-10-04T00:15:51.825Z,98577.79
2022-10-04T00:16:54.158Z,98584.92
2022-10-04T00:18:15.554Z,98586.62
2022-10-04T00:19:24.399Z,98581.30
2022-10-04T00:20:50.106Z,98581.17
2022-10-04T00:21:56.510Z,98584.80
2022-10-04T00:23:24.079Z,98582.13
2022-10-04T00:24:30.446Z,98584.92
2022-10-04T00:25:33.829Z,98589.42
2022-10-04T00:26:43.640Z,98587.72
2022-10-04T00:29:32.762Z,98586.03
2022-10-04T00:30:36.883Z,98586.88
2022-10-04T00:33:02.293Z,98586.89
2022-10-04T00:34:08.536Z,98582.38
2022-10-04T00:35:30.380Z,98587.84
2022-10-04T00:36:52.172Z,98590.37
2022-10-04T00:38:03.272Z,98585.05
2022-10-04T00:39:11.850Z,98584.09
2022-10-04T00:40:16.262Z,98591.13
2022-10-04T00:41:19.388Z,98595.59
2022-10-04T00:42:28.238Z,98591.13
2022-10-04T00:43:42.808Z,98590.25
2022-10-04T00:45:04.088Z,98587.59
2022-10-04T00:47:48.174Z,98589.44
2022-10-04T00:48:55.622Z,98592.92
2022-10-04T00:50:22.684Z,98594.75
2022-10-04T00:51:31.033Z,98598.25
2022-10-04T00:52:34.446Z,98589.42
2022-10-04T00:53:57.203Z,98586.88
2022-10-04T00:55:01.702Z,98602.88
2022-10-04T00:56:05.137Z,98599.34
2022-10-04T00:57:10.369Z,98590.50
2022-10-04T00:58:18.571Z,98584.34
2022-10-04T00:59:30.257Z,98594.01
2022-10-04T01:00:32.528Z,98587.84
2022-10-04T01:01:35.151Z,98591.34
2022-10-04T01:02:43.480Z,98586.01
2022-10-04T01:03:45.618Z,98586.88
2022-10-04T01:04:51.412Z,98596.67
2022-10-04T01:05:55.779Z,98589.67
2022-10-04T01:06:59.447Z,98586.88
2022-10-04T01:09:18.983Z,98590.40
2022-10-04T01:10:23.976Z,98584.92
2022-10-04T01:11:28.489Z,98593.88
2022-10-04T01:12:43.654Z,98598.25
2022-10-04T01:13:54.798Z,98595.59
2022-10-04T01:16:26.165Z,98597.44
2022-10-04T01:17:28.348Z,98601.79
2022-10-04T01:18:32.258Z,98598.25
2022-10-04T01:19:34.325Z,98591.13
2022-10-04T01:22:07.169Z,98592.94
2022-10-04T01:23:09.419Z,98593.79
2022-10-04T01:24:16.405Z,98599.13
2022-10-04T01:25:44.352Z,98586.75
2022-10-04T01:26:47.876Z,98595.59
2022-10-04T01:27:50.493Z,98591.96
2022-10-04T01:28:53.556Z,98593.79
2022-10-04T01:29:55.538Z,98590.25
2022-10-04T01:30:58.229Z,98596.45
2022-10-04T01:32:00.858Z,98596.45
2022-10-04T01:33:03.093Z,98604.45
2022-10-04T01:34:05.560Z,98602.62
2022-10-04T01:35:11.901Z,98594.62
2022-10-04T01:36:15.747Z,98598.13
2022-10-04T01:37:18.616Z,98596.33
2022-10-04T01:38:20.606Z,98599.95
2022-10-04T01:39:24.350Z,98601.66
2022-10-04T01:40:26.599Z,98599.00
2022-10-04T01:41:56.165Z,98598.00
2022-10-04T01:44:36.944Z,98603.39
2022-10-04T01:45:47.764Z,98603.34
2022-10-04T01:46:49.914Z,98602.88
2022-10-04T01:49:14.607Z,98604.60
2022-10-04T01:51:44.013Z,98610.77
2022-10-04T01:54:36.361Z,98610.90
2022-10-04T01:55:41.857Z,98621.30
2022-10-04T01:58:20.080Z,98624.23
2022-10-04T01:59:28.772Z,98624.09
2022-10-04T02:00:31.303Z,98625.05
2022-10-04T02:01:46.342Z,98621.55
2022-10-04T02:03:00.733Z,98620.67
2022-10-04T02:05:38.357Z,98622.41
2022-10-04T02:06:42.518Z,98628.67
2022-10-04T02:07:44.599Z,98634.88
2022-10-04T02:08:49.425Z,98626.01
2022-10-04T02:09:54.933Z,98632.34
2022-10-04T02:10:57.314Z,98631.47
2022-10-04T02:12:00.861Z,98623.47
2022-10-04T02:13:04.424Z,98627.00
2022-10-04T02:15:25.321Z,98628.83
2022-10-04T02:16:27.453Z,98626.88
2022-10-04T02:17:31.475Z,98625.17
2022-10-04T02:18:34.224Z,98634.01
2022-10-04T02:19:38.745Z,98634.88
2022-10-04T02:20:42.264Z,98639.22
2022-10-04T02:21:45.270Z,98632.92
2022-10-04T02:22:50.781Z,98632.92
2022-10-04T02:23:52.938Z,98632.92
2022-10-04T02:24:56.422Z,98634.75
2022-10-04T02:25:58.633Z,98630.13
2022-10-04T02:27:00.716Z,98643.47
2022-10-04T02:28:03.229Z,98632.80
2022-10-04T02:29:06.474Z,98647.00
2022-10-04T02:30:10.576Z,98640.80
2022-10-04T02:31:12.698Z,98646.13
2022-10-04T02:32:14.930Z,98646.13
2022-10-04T02:33:17.976Z,98648.80
2022-10-04T02:34:20.106Z,98650.63
2022-10-04T02:35:37.488Z,98647.84
2022-10-04T02:36:41.258Z,98648.67
2022-10-04T02:37:43.461Z,98653.17
2022-10-04T02:40:20.724Z,98654.16
2022-10-04T02:42:56.034Z,98657.83
2022-10-04T02:44:16.605Z,98652.34
2022-10-04T02:45:24.715Z,98653.30
2022-10-04T02:47:50.029Z,98646.41
2022-10-04T02:48:59.221Z,98653.42
2022-10-04T02:50:08.514Z,98656.09
2022-10-04T02:51:23.122Z,98657.05
2022-10-04T02:52:36.758Z,98656.09
2022-10-04T02:53:42.584Z,98658.01
2022-10-04T02:56:03.359Z,98668.83
2022-10-04T02:57:14.766Z,98667.84
2022-10-04T02:58:18.682Z,98669.67
2022-10-04T02:59:20.953Z,98666.13
2022-10-04T03:00:25.544Z,98674.13
2022-10-04T03:01:44.163Z,98668.80
2022-10-04T03:03:22.744Z,98672.33
2022-10-04T03:04:28.114Z,98674.01
2022-10-04T03:05:30.675Z,98682.13
2022-10-04T03:06:32.911Z,98672.42
2022-10-04T03:07:35.481Z,98683.96
2022-10-04T03:08:53.666Z,98685.76
2022-10-04T03:09:56.036Z,98683.09
2022-10-04T03:10:58.248Z,98683.09
2022-10-04T03:12:01.394Z,98680.42
2022-10-04T03:13:03.460Z,98684.92
2022-10-04T03:14:15.374Z,98680.55
2022-10-04T03:15:17.420Z,98682.13
2022-10-04T03:16:21.519Z,98683.09
2022-10-04T03:17:24.328Z,98673.66
2022-10-04T03:18:30.445Z,98673.66
2022-10-04T03:19:33.105Z,98684.80
2022-10-04T03:20:37.189Z,98685.67
2022-10-04T03:21:39.584Z,98681.17
2022-10-04T03:22:46.880Z,98688.21
2022-10-04T03:23:49.129Z,98695.34
2022-10-04T03:24:53.278Z,98687.34
2022-10-04T03:26:22.715Z,98693.42
2022-10-04T03:27:28.936Z,98694.38
2022-10-04T03:28:32.437Z,98696.09
2022-10-04T03:29:35.765Z,98696.09
2022-10-04T03:30:38.569Z,98696.09
2022-10-04T03:31:43.597Z,98702.26
2022-10-04T03:32:47.111Z,98699.72
2022-10-04T03:33:49.694Z,98699.59
2022-10-04T03:35:00.085Z,98702.26
2022-10-04T03:36:02.891Z,98704.92
2022-10-04T03:37:14.359Z,98710.26
2022-10-04T03:38:16.932Z,98708.47
2022-10-04T03:39:43.474Z,98707.59
2022-10-04T03:40:51.316Z,98708.47
2022-10-04T03:41:53.460Z,98709.30
2022-10-04T03:42:55.528Z,98711.13
2022-10-04T03:44:00.384Z,98712.09
2022-10-04T03:46:18.061Z,98712.25
2022-10-04T03:47:27.050Z,98712.92
2022-10-04T03:49:53.702Z,98717.47
2022-10-04T03:50:58.593Z,98721.80
2022-10-04T03:52:01.006Z,98722.64
2022-10-04T03:54:22.390Z,98723.52
2022-10-04T03:55:26.255Z,98732.34
2022-10-04T03:56:33.745Z,98731.47
2022-10-04T03:57:36.020Z,98722.64
2022-10-04T03:58:38.207Z,98726.14
2022-10-04T03:59:40.842Z,98730.52
2022-10-04T04:02:01.428Z,98724.39
2022-10-04T04:03:07.586Z,98726.02
2022-10-04T04:04:37.869Z,98724.34
2022-10-04T04:05:42.617Z,98734.02
2022-10-04T04:06:51.378Z,98733.18
2022-10-04T04:08:13.911Z,98729.67
2022-10-04T04:10:42.774Z,98731.52
2022-10-04T04:11:46.121Z,98736.80
2022-10-04T04:13:00.754Z,98728.09
2022-10-04T04:14:10.129Z,98729.80
2022-10-04T04:15:13.972Z,98734.27
2022-10-04T04:16:17.141Z,98739.59
2022-10-04T04:17:31.909Z,98739.59
2022-10-04T04:18:34.864Z,98741.42
2022-10-04T04:19:37.481Z,98739.59
2022-10-04T04:20:41.328Z,98750.27
2022-10-04T04:21:43.735Z,98753.05
2022-10-04T04:22:49.738Z,98755.72
2022-10-04T04:24:03.324Z,98763.59
2022-10-04T04:25:07.915Z,98749.42
2022-10-04T04:26:38.143Z,98745.89
2022-10-04T04:27:41.544Z,98749.42
2022-10-04T04:28:51.093Z,98754.76
2022-10-04T04:29:54.189Z,98768.09
2022-10-04T04:32:22.724Z,98748.73
2022-10-04T04:33:28.244Z,98762.88
2022-10-04T04:34:38.210Z,98764.67
2022-10-04T04:35:40.820Z,98759.34
2022-10-04T04:36:43.081Z,98761.05
2022-10-04T04:37:49.532Z,98758.87
2022-10-04T04:38:52.905Z,98758.87
2022-10-04T04:39:55.047Z,98762.88
2022-10-04T04:40:57.594Z,98770.88
2022-10-04T04:42:30.417Z,98761.17
2022-10-04T04:43:32.709Z,98767.34
2022-10-04T04:44:35.752Z,98770.02
2022-10-04T04:45:39.662Z,98764.67
2022-10-04T04:46:42.980Z,98777.17
2022-10-04T04:47:47.618Z,98778.88
2022-10-04T04:48:54.204Z,98770.88
2022-10-04T04:49:57.862Z,98781.67
2022-10-04T04:51:00.522Z,98779.84
2022-10-04T04:52:02.492Z,98782.51
2022-10-04T04:53:07.190Z,98782.51
2022-10-04T04:54:11.179Z,98790.51
2022-10-04T04:56:28.016Z,98785.23
2022-10-04T04:57:30.004Z,98782.51
2022-10-04T04:58:34.238Z,98782.51
2022-10-04T04:59:37.066Z,98793.05
2022-10-04T05:00:39.291Z,98797.43
2022-10-04T05:01:44.863Z,98795.59
2022-10-04T05:02:58.195Z,98798.27
2022-10-04T05:04:12.107Z,98803.60
2022-10-04T05:05:23.484Z,98803.60
2022-10-04T05:06:26.383Z,98799.97
2022-10-04T05:07:29.111Z,98807.23
2022-10-04T05:08:38.612Z,98811.60
2022-10-04T05:09:37.678Z,98811.72
2022-10-04T05:11:07.380Z,98815.23
2022-10-04T05:12:15.496Z,98809.89
2022-10-04T05:13:17.538Z,98813.55
2022-10-04T05:14:20.035Z,98819.84
2022-10-04T05:15:22.033Z,98820.80
2022-10-04T05:16:26.542Z,98813.76
2022-10-04T05:17:33.140Z,98824.42
2022-10-04T05:18:35.164Z,98819.09
2022-10-04T05:19:37.344Z,98829.76
2022-10-04T05:20:40.912Z,98831.59
2022-10-04T05:21:45.001Z,98825.41
2022-10-04T05:22:47.491Z,98828.08
2022-10-04T05:23:50.007Z,98835.21
2022-10-04T05:24:53.976Z,98819.57
2022-10-04T05:25:56.037Z,98819.57
2022-10-04T05:27:06.746Z,98836.92
2022-10-04T05:28:12.441Z,98835.21
2022-10-04T05:29:17.350Z,98841.41
2022-10-04T05:30:46.100Z,98830.75
2022-10-04T05:32:04.441Z,98844.08
2022-10-04T05:33:33.741Z,98853.88
2022-10-04T05:36:06.411Z,98846.91
2022-10-04T05:37:44.576Z,98851.33
2022-10-04T05:40:14.317Z,98858.77
2022-10-04T05:41:42.399Z,98863.19
2022-10-04T05:43:51.366Z,98861.76
2022-10-04T05:44:54.771Z,98866.09
2022-10-04T05:47:22.009Z,98867.09
2022-10-04T05:48:25.131Z,98873.13
2022-10-04T05:49:36.263Z,98872.27
2022-10-04T05:50:39.726Z,98873.97
2022-10-04T05:51:57.635Z,98874.84
2022-10-04T05:53:31.103Z,98881.86
2022-10-04T05:54:35.400Z,98873.86
2022-10-04T05:55:41.209Z,98879.19
2022-10-04T05:57:11.710Z,98876.41
2022-10-04T05:58:42.098Z,98880.06
2022-10-04T06:00:11.385Z,98887.19
2022-10-04T06:01:47.050Z,98886.34
2022-10-04T06:02:53.373Z,98880.27
2022-10-04T06:05:30.275Z,98878.75
2022-10-04T06:06:45.521Z,98875.16
2022-10-04T06:08:10.972Z,98885.83
2022-10-04T06:09:35.851Z,98889.45
2022-10-04T06:10:51.369Z,98894.70
2022-10-04T06:13:38.093Z,98890.49
2022-10-04T06:14:50.557Z,98902.78
2022-10-04T06:15:56.282Z,98900.23
2022-10-04T06:17:22.726Z,98899.28
2022-10-04T06:18:29.431Z,98900.98
2022-10-04T06:19:46.916Z,98904.61
2022-10-04T06:21:12.400Z,98907.27
2022-10-04T06:22:16.051Z,98901.95
2022-10-04T06:23:18.256Z,98908.98
2022-10-04T06:24:26.795Z,98908.98
2022-10-04T06:25:36.015Z,98915.16
2022-10-04T06:26:41.975Z,98914.31
2022-10-04T06:27:53.297Z,98908.88
2022-10-04T06:29:01.517Z,98917.70
2022-10-04T06:30:05.633Z,98913.25
2022-10-04T06:31:29.598Z,98915.80
2022-10-04T06:32:55.385Z,98915.80
2022-10-04T06:34:19.090Z,98911.30
2022-10-04T06:35:47.974Z,98918.34
2022-10-04T06:37:11.898Z,98922.84
2022-10-04T06:38:53.815Z,98930.08
2022-10-04T06:40:21.091Z,98930.92
2022-10-04T06:41:33.316Z,98931.91
2022-10-04T06:42:44.780Z,98932.98
2022-10-04T06:43:50.570Z,98936.61
2022-10-04T06:44:59.728Z,98940.22
2022-10-04T06:46:17.993Z,98936.61
2022-10-04T06:47:42.233Z,98939.27
2022-10-04T06:48:48.038Z,98936.61
2022-10-04T06:50:12.318Z,98936.61
2022-10-04T06:51:26.852Z,98941.09
2022-10-04T06:52:50.528Z,98942.78
2022-10-04T06:54:08.605Z,98957.93
2022-10-04T06:55:38.793Z,98938.55
2022-10-04T06:56:59.874Z,98948.22
2022-10-04T06:58:27.557Z,98947.50
2022-10-04T06:59:39.092Z,98958.39
2022-10-04T07:00:54.847Z,98951.70
2022-10-04T07:02:08.148Z,98952.88
2022-10-04T07:03:25.507Z,98955.74
2022-10-04T07:05:07.972Z,98956.92
2022-10-04T07:06:02.133Z,98960.69
2022-10-04T07:07:22.532Z,98962.82
2022-10-04T07:08:34.940Z,98962.06
2022-10-04T07:09:37.077Z,98973.82
2022-10-04T07:10:52.060Z,98957.19
2022-10-04T07:11:58.747Z,98965.41
2022-10-04T07:13:07.916Z,98963.80
2022-10-04T07:14:26.172Z,98958.59
2022-10-04T07:15:46.829Z,98960.38
2022-10-04T07:16:57.888Z,98969.47
2022-10-04T07:18:03.002Z,98962.42
2022-10-04T07:19:25.033Z,98970.42
2022-10-04T07:20:30.873Z,98968.70
2022-10-04T07:23:04.974Z,98969.13
2022-10-04T07:24:09.210Z,98984.08
2022-10-04T07:25:17.112Z,98970.83
2022-10-04T07:26:45.205Z,98976.16
2022-10-04T07:27:55.708Z,98977.03
2022-10-04T07:29:01.098Z,98983.20
2022-10-04T07:30:07.782Z,98990.24
2022-10-04T07:31:13.354Z,98977.88
2022-10-04T07:32:18.521Z,98991.19
2022-10-04T07:33:25.855Z,98996.63
2022-10-04T07:34:27.997Z,98992.26
2022-10-04T07:35:37.729Z,98995.03
2022-10-04T07:38:10.224Z,99000.45
2022-10-04T07:39:17.837Z,99001.96
2022-10-04T07:40:42.310Z,99007.17
2022-10-04T07:41:51.909Z,99004.52
2022-10-04T07:43:11.714Z,99012.39
2022-10-04T07:44:25.709Z,99006.23
2022-10-04T07:45:33.638Z,99008.89
2022-10-04T07:48:29.132Z,99007.27
2022-10-04T07:49:38.100Z,99010.80
2022-10-04T07:50:44.277Z,99005.47
2022-10-04T07:52:14.697Z,99011.66
2022-10-04T07:53:20.781Z,99014.22
2022-10-04T07:54:29.907Z,99014.22
2022-10-04T07:55:38.784Z,99014.44
2022-10-04T07:58:25.479Z,99017.31
2022-10-04T08:01:07.335Z,99025.20
2022-10-04T08:02:16.542Z,99037.43
2022-10-04T08:03:45.397Z,99029.55
2022-10-04T08:05:05.491Z,99031.48
2022-10-04T08:06:15.033Z,99035.09
2022-10-04T08:07:24.515Z,99027.22
2022-10-04T08:09:53.557Z,99031.91
2022-10-04T08:11:08.984Z,99025.50
2022-10-04T08:12:37.682Z,99034.41
2022-10-04T08:13:51.599Z,99035.31
2022-10-04T08:14:56.178Z,99036.23
2022-10-04T08:16:11.749Z,99040.72
2022-10-04T08:17:20.440Z,99043.48
2022-10-04T08:18:44.533Z,99036.45
2022-10-04T08:20:13.185Z,99040.94
2022-10-04T08:21:21.067Z,99035.69
2022-10-04T08:22:33.151Z,99042.10
2022-10-04T08:25:19.096Z,99042.84
2022-10-04T08:26:31.011Z,99056.14
2022-10-04T08:28:10.173Z,99053.70
2022-10-04T08:29:17.305Z,99062.63
2022-10-04T08:30:20.988Z,99057.52
2022-10-04T08:31:54.288Z,99054.09
2022-10-04T08:33:03.802Z,99052.38
2022-10-04T08:34:09.830Z,99064.01
2022-10-04T08:35:30.850Z,99065.06
2022-10-04T08:38:24.830Z,99060.08
2022-10-04T08:39:49.254Z,99066.84
2022-10-04T08:41:20.819Z,99076.45
2022-10-04T08:42:54.220Z,99080.09
2022-10-04T08:44:13.172Z,99073.05
2022-10-04T08:45:23.183Z,99075.71
2022-10-04T08:46:57.958Z,99076.45
2022-10-04T08:48:25.305Z,99080.09
2022-10-04T08:50:04.951Z,99081.42
2022-10-04T08:51:30.373Z,99088.78
2022-10-04T08:52:52.570Z,99092.59
2022-10-04T08:54:15.451Z,99085.56
2022-10-04T08:55:53.630Z,99093.65
2022-10-04T08:57:16.323Z,99098.77
2022-10-04T08:58:45.035Z,99095.16
2022-10-04T09:00:20.787Z,99090.49
2022-10-04T09:01:58.824Z,99095.72
2022-10-04T09:03:10.254Z,99105.38
2022-10-04T09:04:31.806Z,99107.09
2022-10-04T09:06:11.098Z,99107.94
2022-10-04T09:07:38.763Z,99103.48
2022-10-04T09:09:02.222Z,99107.20
2022-10-04T09:10:34.476Z,99112.53
2022-10-04T09:11:52.630Z,99116.03
2022-10-04T09:13:05.101Z,99123.17
2022-10-04T09:15:44.411Z,99118.94
2022-10-04T09:16:54.957Z,99117.01
2022-10-04T09:18:33.222Z,99126.57
2022-10-04T09:19:43.312Z,99127.34
2022-10-04T09:20:54.277Z,99120.20
2022-10-04T09:22:17.556Z,99130.74
2022-10-04T09:23:33.142Z,99121.81
2022-10-04T09:25:07.611Z,99134.06
2022-10-04T09:26:16.601Z,99131.30
2022-10-04T09:27:53.700Z,99122.27
2022-10-04T09:30:19.269Z,99136.48
2022-10-04T09:31:31.044Z,99146.02
2022-10-04T09:33:03.979Z,99139.73
2022-10-04T09:34:43.769Z,99139.53
2022-10-04T09:37:40.255Z,99142.70
2022-10-04T09:40:32.323Z,99152.95
2022-10-04T09:41:39.447Z,99157.91
2022-10-04T09:44:29.326Z,99152.42
2022-10-04T09:45:55.262Z,99166.28
2022-10-04T09:47:21.199Z,99156.36
2022-10-04T09:49:56.029Z,99155.96
2022-10-04T09:52:27.951Z,99160.97
2022-10-04T09:55:10.819Z,99157.36
2022-10-04T09:56:30.547Z,99157.98
2022-10-04T09:58:02.329Z,99164.08
2022-10-04T09:59:30.500Z,99161.41
2022-10-04T10:00:42.265Z,99164.81
2022-10-04T10:02:06.580Z,99161.09
2022-10-04T10:03:44.682Z,99163.75
2022-10-04T10:04:53.676Z,99169.92
2022-10-04T10:07:42.175Z,99161.09
2022-10-04T10:09:10.186Z,99168.86
2022-10-04T10:11:57.699Z,99159.30
2022-10-04T10:13:31.879Z,99172.30
2022-10-04T10:14:52.258Z,99177.73
2022-10-04T10:16:18.156Z,99180.29
2022-10-04T10:17:49.478Z,99176.67
2022-10-04T10:19:26.235Z,99174.01
2022-10-04T10:20:56.948Z,99176.67
2022-10-04T10:22:08.537Z,99179.34
2022-10-04T10:24:53.776Z,99176.02
2022-10-04T10:26:09.798Z,99193.61
2022-10-04T10:27:37.298Z,99182.95
2022-10-04T10:29:05.906Z,99185.73
2022-10-04T10:30:27.164Z,99184.85
2022-10-04T10:31:54.531Z,99194.67
2022-10-04T10:33:21.523Z,99193.91
2022-10-04T10:34:36.683Z,99195.07
2022-10-04T10:35:45.532Z,99180.17
2022-10-04T10:37:17.550Z,99196.34
2022-10-04T10:38:47.030Z,99195.71
2022-10-04T10:40:18.435Z,99195.97
2022-10-04T10:41:27.802Z,99197.20
2022-10-04T10:42:51.485Z,99201.69
2022-10-04T10:44:03.985Z,99199.02
2022-10-04T10:45:42.262Z,99199.77
2022-10-04T10:47:24.019Z,99189.88
2022-10-04T10:48:35.970Z,99200.35
2022-10-04T10:49:53.825Z,99208.34
2022-10-04T10:51:14.859Z,99211.74
2022-10-04T10:52:51.236Z,99202.80
2022-10-04T10:54:28.637Z,99205.36
2022-10-04T10:56:04.870Z,99200.80
2022-10-04T10:57:20.857Z,99206.97
2022-10-04T10:58:51.275Z,99205.08
2022-10-04T11:00:24.837Z,99210.41
2022-10-04T11:03:38.369Z,99206.81
2022-10-04T11:04:47.604Z,99217.31
2022-10-04T11:06:14.596Z,99206.77
2022-10-04T11:07:26.423Z,99209.42
2022-10-04T11:09:06.033Z,99208.48
2022-10-04T11:10:21.826Z,99217.31
2022-10-04T11:11:39.723Z,99217.31
2022-10-04T11:13:06.324Z,99203.99
2022-10-04T11:14:47.651Z,99215.52
2022-10-04T11:16:21.159Z,99210.30
2022-10-04T11:17:53.538Z,99215.63
2022-10-04T11:19:19.318Z,99212.09
2022-10-04T11:20:51.672Z,99217.42
2022-10-04T11:22:14.259Z,99218.40
2022-10-04T11:23:29.727Z,99221.06
2022-10-04T11:25:08.108Z,99215.84
2022-10-04T11:26:41.065Z,99231.05
2022-10-04T11:27:57.545Z,99232.88
2022-10-04T11:29:34.045Z,99226.56
2022-10-04T11:30:59.844Z,99231.90
2022-10-04T11:34:16.965Z,99233.86
2022-10-04T11:35:49.561Z,99225.63
2022-10-04T11:37:28.631Z,99241.61
2022-10-04T11:38:37.016Z,99239.89
2022-10-04T11:39:55.064Z,99246.94
2022-10-04T11:41:17.418Z,99247.88
2022-10-04T11:42:40.568Z,99246.94
2022-10-04T11:43:59.734Z,99255.88
2022-10-04T11:45:39.877Z,99259.31
2022-10-04T11:46:55.121Z,99245.14
2022-10-04T11:48:29.891Z,99261.97
2022-10-04T11:49:52.361Z,99249.59
2022-10-04T11:51:21.016Z,99246.94
2022-10-04T11:52:59.632Z,99260.25
2022-10-04T11:55:55.398Z,99260.29
2022-10-04T11:57:10.869Z,99261.02
2022-10-04T11:58:36.763Z,99279.67
2022-10-04T12:00:00.193Z,99270.70
2022-10-04T12:01:27.989Z,99271.58
2022-10-04T12:02:49.321Z,99272.42
2022-10-04T12:04:02.554Z,99272.31
2022-10-04T12:05:23.680Z,99268.80
2022-10-04T12:06:52.333Z,99277.54
2022-10-04T12:08:20.297Z,99276.70
2022-10-04T12:09:50.409Z,99280.09
2022-10-04T12:11:17.511Z,99277.44
2022-10-04T12:12:29.631Z,99281.81
2022-10-04T12:13:39.107Z,99276.48
2022-10-04T12:15:00.390Z,99274.77
2022-10-04T12:16:12.798Z,99277.36
2022-10-04T12:17:45.827Z,99272.03
2022-10-04T12:19:03.323Z,99273.72
2022-10-04T12:20:26.588Z,99271.92
2022-10-04T12:21:52.076Z,99278.09
2022-10-04T12:23:00.929Z,99269.16
2022-10-04T12:24:40.943Z,99270.88
2022-10-04T12:25:52.856Z,99276.20
2022-10-04T12:26:59.454Z,99276.09
2022-10-04T12:28:21.742Z,99276.09
2022-10-04T12:29:37.773Z,99281.33
2022-10-04T12:32:14.161Z,99279.74
2022-10-04T12:33:20.581Z,99275.02
2022-10-04T12:36:19.255Z,99268.03
2022-10-04T12:37:47.194Z,99274.84
2022-10-04T12:40:13.426Z,99270.59
2022-10-04T12:41:26.239Z,99278.34
2022-10-04T12:42:48.274Z,99269.50
2022-10-04T12:43:57.523Z,99279.19
2022-10-04T12:45:15.691Z,99273.78
2022-10-04T12:46:24.108Z,99273.78
2022-10-04T12:47:54.883Z,99275.47
2022-10-04T12:50:26.817Z,99280.09
2022-10-04T12:51:48.965Z,99282.52
2022-10-04T12:54:35.709Z,99280.93
2022-10-04T12:55:49.030Z,99283.36
2022-10-04T12:57:04.484Z,99280.69
2022-10-04T12:59:51.696Z,99285.31
2022-10-04T13:00:56.761Z,99293.07
2022-10-04T13:02:21.803Z,99284.23
2022-10-04T13:03:51.513Z,99286.80
2022-10-04T13:04:59.548Z,99287.73
2022-10-04T13:06:43.738Z,99295.73
2022-10-04T13:07:49.907Z,99289.56
2022-10-04T13:11:05.190Z,99296.08
2022-10-04T13:12:30.364Z,99295.00
2022-10-04T13:14:05.132Z,99294.13
2022-10-04T13:15:27.079Z,99299.56
2022-10-04T13:18:28.637Z,99301.63
2022-10-04T13:19:50.899Z,99303.17
2022-10-04T13:21:08.245Z,99300.61
2022-10-04T13:22:51.400Z,99301.48
2022-10-04T13:24:01.175Z,99301.59
2022-10-04T13:25:11.082Z,99299.77
2022-10-04T13:26:37.949Z,99302.54
2022-10-04T13:27:53.245Z,99304.33
2022-10-04T13:29:05.690Z,99309.66
2022-10-04T13:30:26.022Z,99309.66
2022-10-04T13:31:31.988Z,99310.64
2022-10-04T13:34:01.808Z,99315.34
2022-10-04T13:35:21.012Z,99314.25
2022-10-04T13:36:30.905Z,99314.25
2022-10-04T13:37:39.541Z,99312.42
2022-10-04T13:39:06.987Z,99320.31
2022-10-04T13:40:18.609Z,99322.98
2022-10-04T13:41:30.868Z,99318.53
2022-10-04T13:42:59.769Z,99327.36
2022-10-04T13:45:58.158Z,99317.83
2022-10-04T13:50:50.572Z,99328.59
2022-10-04T13:52:11.829Z,99328.41
2022-10-04T13:53:36.941Z,99327.67
2022-10-04T13:56:40.734Z,99330.80
2022-10-04T13:57:46.858Z,99335.00
2022-10-04T13:58:58.642Z,99349.38
2022-10-04T14:00:08.463Z,99343.30
2022-10-04T14:01:29.948Z,99343.41
2022-10-04T14:02:55.953Z,99352.34
2022-10-04T14:04:23.604Z,99348.06
2022-10-04T14:05:47.422Z,99350.94
2022-10-04T14:07:23.495Z,99359.03
2022-10-04T14:09:02.957Z,99356.67
2022-10-04T14:10:31.829Z,99354.25
2022-10-04T14:13:19.259Z,99356.81
2022-10-04T14:14:58.565Z,99355.80
2022-10-04T14:16:25.107Z,99370.16
2022-10-04T14:17:55.939Z,99362.37
2022-10-04T14:19:19.746Z,99354.75
2022-10-04T14:22:14.401Z,99384.22
2022-10-04T14:23:32.338Z,99380.62
2022-10-04T14:25:17.565Z,99386.90
2022-10-04T14:26:24.406Z,99388.91
2022-10-04T14:27:52.799Z,99387.00
2022-10-04T14:29:07.974Z,99391.37
2022-10-04T14:30:25.964Z,99398.23
2022-10-04T14:31:39.633Z,99402.58
2022-10-04T14:33:02.890Z,99399.75
2022-10-04T14:34:22.388Z,99417.41
2022-10-04T14:35:35.596Z,99401.27
2022-10-04T14:36:51.928Z,99410.84
2022-10-04T14:38:17.959Z,99418.67
2022-10-04T14:39:35.700Z,99407.04
2022-10-04T14:41:16.126Z,99410.48
2022-10-04T14:42:35.071Z,99410.28
2022-10-04T14:43:47.008Z,99407.42
2022-10-04T14:44:59.919Z,99410.89
2022-10-04T14:46:15.065Z,99417.06
2022-10-04T14:47:36.201Z,99413.36
2022-10-04T14:49:00.126Z,99418.58
2022-10-04T14:51:46.434Z,99414.09
2022-10-04T14:53:17.176Z,99414.67
2022-10-04T14:54:26.136Z,99413.73
2022-10-04T14:57:14.099Z,99420.00
2022-10-04T14:58:39.318Z,99430.39
2022-10-04T15:00:02.025Z,99420.57
2022-10-04T15:01:20.900Z,99428.56
2022-10-04T15:02:30.353Z,99431.13
2022-10-04T15:03:52.896Z,99426.64
2022-10-04T15:06:50.260Z,99427.69
2022-10-04T15:07:55.795Z,99431.91
2022-10-04T15:09:08.042Z,99430.09
2022-10-04T15:10:24.880Z,99430.09
2022-10-04T15:11:36.214Z,99443.30
2022-10-04T15:13:57.308Z,99434.37
2022-10-04T15:15:08.896Z,99433.42
2022-10-04T15:16:33.262Z,99442.27
2022-10-04T15:17:37.078Z,99445.77
2022-10-04T15:19:00.359Z,99448.33
2022-10-04T15:20:15.218Z,99456.33
2022-10-04T15:21:39.649Z,99458.89
2022-10-04T15:22:44.417Z,99453.56
2022-10-04T15:23:51.931Z,99452.72
2022-10-04T15:24:54.603Z,99452.62
2022-10-04T15:26:16.995Z,99458.05
2022-10-04T15:27:37.323Z,99461.48
2022-10-04T15:28:52.467Z,99465.94
2022-10-04T15:30:24.582Z,99464.16
2022-10-04T15:31:42.623Z,99464.16
2022-10-04T15:33:06.880Z,99467.66
2022-10-04T15:34:35.786Z,99457.95
2022-10-04T15:36:03.650Z,99461.48
2022-10-04T15:37:24.458Z,99471.38
2022-10-04T15:38:37.363Z,99469.11
2022-10-04T15:39:59.964Z,99467.69
2022-10-04T15:41:29.868Z,99468.83
2022-10-04T15:42:33.409Z,99467.31
2022-10-04T15:43:42.729Z,99469.20
2022-10-04T15:44:57.808Z,99468.45
2022-10-04T15:46:20.505Z,99474.63
2022-10-04T15:47:49.299Z,99476.45
2022-10-04T15:48:58.464Z,99479.11
2022-10-04T15:50:20.751Z,99479.85
2022-10-04T15:51:51.381Z,99473.68
2022-10-04T15:52:57.757Z,99477.19
2022-10-04T15:54:40.681Z,99484.23
2022-10-04T15:57:41.773Z,99502.97
2022-10-04T15:59:23.571Z,99494.70
2022-10-04T16:00:27.890Z,99485.86
2022-10-04T16:01:50.301Z,99502.69
2022-10-04T16:03:05.805Z,99491.94
2022-10-04T16:06:07.810Z,99494.71
2022-10-04T16:07:22.843Z,99505.94
2022-10-04T16:08:37.731Z,99504.99
2022-10-04T16:10:13.108Z,99511.91
2022-10-04T16:11:25.285Z,99510.97
2022-10-04T16:12:32.736Z,99509.18
2022-10-04T16:14:08.241Z,99504.59
2022-10-04T16:15:19.163Z,99487.38
2022-10-04T16:16:40.536Z,99508.88
2022-10-04T16:17:53.185Z,99511.55
2022-10-04T16:19:10.145Z,99512.29
2022-10-04T16:20:34.964Z,99520.19
2022-10-04T16:21:56.117Z,99515.73
2022-10-04T16:23:27.687Z,99521.06
2022-10-04T16:26:13.164Z,99520.30
2022-10-04T16:27:26.371Z,99518.20
2022-10-04T16:28:35.928Z,99524.38
2022-10-04T16:30:14.850Z,99529.70